createdAt,value
2022-12-18T00:01:26.411Z,-5.69
2022-12-18T00:03:54.025Z,-5.68
2022-12-18T00:06:20.986Z,-5.68
2022-12-18T00:08:47.999Z,-5.68
2022-12-18T00:11:15.799Z,-5.69
2022-12-18T00:13:42.868Z,-5.70
2022-12-18T00:16:10.978Z,-5.72
2022-12-18T00:18:38.982Z,-5.75
2022-12-18T00:21:07.127Z,-5.74
2022-12-18T00:23:34.448Z,-5.76
2022-12-18T00:26:01.384Z,-5.76
2022-12-18T00:28:27.874Z,-5.76
2022-12-18T00:31:01.157Z,-5.77
2022-12-18T00:33:27.860Z,-5.78
2022-12-18T00:35:55.660Z,-5.78
2022-12-18T00:38:22.068Z,-5.77
2022-12-18T00:40:50.145Z,-5.78
2022-12-18T00:43:16.681Z,-5.77
2022-12-18T00:45:43.158Z,-5.75
2022-12-18T00:48:10.676Z,-5.75
2022-12-18T00:50:37.079Z,-5.76
2022-12-18T00:53:05.425Z,-5.77
2022-12-18T00:55:31.888Z,-5.76
2022-12-18T00:57:58.427Z,-5.78
2022-12-18T01:00:25.089Z,-5.79
2022-12-18T01:02:51.911Z,-5.80
2022-12-18T01:05:18.569Z,-5.81
2022-12-18T01:07:45.026Z,-5.82
2022-12-18T01:10:13.395Z,-5.85
2022-12-18T01:12:39.893Z,-5.87
2022-12-18T01:15:07.454Z,-5.91
2022-12-18T01:17:34.103Z,-5.91
2022-12-18T01:20:01.202Z,-5.96
2022-12-18T01:22:27.722Z,-5.94
2022-12-18T01:24:54.224Z,-5.94
2022-12-18T01:27:24.253Z,-5.93
2022-12-18T01:29:52.103Z,-5.96
2022-12-18T01:32:19.677Z,-5.96
2022-12-18T01:34:46.214Z,-5.93
2022-12-18T01:37:12.597Z,-5.93
2022-12-18T01:39:39.060Z,-5.94
2022-12-18T01:42:09.946Z,-5.94
2022-12-18T01:44:57.652Z,-5.94
2022-12-18T01:47:26.331Z,-5.96
2022-12-18T01:49:53.366Z,-5.98
2022-12-18T01:52:20.837Z,-6.00
2022-12-18T01:54:47.933Z,-5.99
2022-12-18T01:57:14.535Z,-6.01
2022-12-18T01:59:42.950Z,-6.01
2022-12-18T02:02:10.872Z,-6.03
2022-12-18T02:04:37.826Z,-6.05
2022-12-18T02:07:11.339Z,-6.06
2022-12-18T02:09:41.191Z,-6.11
2022-12-18T02:12:13.398Z,-6.13
2022-12-18T02:14:45.386Z,-6.14
2022-12-18T02:17:17.369Z,-6.15
2022-12-18T02:19:51.635Z,-6.14
2022-12-18T02:22:24.922Z,-6.16
2022-12-18T02:24:55.023Z,-6.18
2022-12-18T02:27:23.485Z,-6.19
2022-12-18T02:29:57.879Z,-6.20
2022-12-18T02:32:26.395Z,-6.20
2022-12-18T02:34:55.333Z,-6.20
2022-12-18T02:37:24.300Z,-6.21
2022-12-18T02:39:53.793Z,-6.23
2022-12-18T02:42:20.954Z,-6.26
2022-12-18T02:44:50.796Z,-6.29
2022-12-18T02:47:22.799Z,-6.30
2022-12-18T02:49:54.244Z,-6.29
2022-12-18T02:52:25.854Z,-6.28
2022-12-18T02:54:58.747Z,-6.27
2022-12-18T02:57:32.495Z,-6.29
2022-12-18T03:00:02.712Z,-6.29
2022-12-18T03:02:33.706Z,-6.30
2022-12-18T03:05:02.981Z,-6.32
2022-12-18T03:07:35.163Z,-6.33
2022-12-18T03:10:01.959Z,-6.32
2022-12-18T03:12:31.392Z,-6.32
2022-12-18T03:15:01.812Z,-6.32
2022-12-18T03:17:31.859Z,-6.33
2022-12-18T03:20:00.743Z,-6.33
2022-12-18T03:22:29.372Z,-6.35
2022-12-18T03:24:57.603Z,-6.37
2022-12-18T03:27:26.229Z,-6.38
2022-12-18T03:29:57.580Z,-6.38
2022-12-18T03:32:29.882Z,-6.38
2022-12-18T03:35:01.879Z,-6.38
2022-12-18T03:37:31.810Z,-6.38
2022-12-18T03:39:58.409Z,-6.38
2022-12-18T03:42:28.052Z,-6.37
2022-12-18T03:45:06.059Z,-6.40
2022-12-18T03:47:38.414Z,-6.40
2022-12-18T03:50:13.045Z,-6.39
2022-12-18T03:52:43.735Z,-6.38
2022-12-18T03:55:10.836Z,-6.39
2022-12-18T03:57:38.843Z,-6.36
2022-12-18T04:00:07.284Z,-6.34
2022-12-18T04:02:42.228Z,-6.34
2022-12-18T04:05:11.575Z,-6.34
2022-12-18T04:07:40.887Z,-6.36
2022-12-18T04:10:10.238Z,-6.36
2022-12-18T04:12:37.984Z,-6.34
2022-12-18T04:15:08.965Z,-6.32
2022-12-18T04:17:35.838Z,-6.29
2022-12-18T04:20:02.524Z,-6.27
2022-12-18T04:22:31.780Z,-6.24
2022-12-18T04:24:59.770Z,-6.21
2022-12-18T04:27:33.236Z,-6.17
2022-12-18T04:29:59.740Z,-6.09
2022-12-18T04:32:26.651Z,-6.01
2022-12-18T04:34:53.148Z,-5.92
2022-12-18T04:37:19.655Z,-5.86
2022-12-18T04:39:48.541Z,-5.79
2022-12-18T04:42:22.213Z,-5.73
2022-12-18T04:44:48.627Z,-5.67
2022-12-18T04:47:15.034Z,-5.63
2022-12-18T04:49:41.512Z,-5.62
2022-12-18T04:52:10.838Z,-5.62
2022-12-18T04:54:37.252Z,-5.63
2022-12-18T04:57:05.083Z,-5.67
2022-12-18T04:59:31.586Z,-5.67
2022-12-18T05:01:58.072Z,-5.69
2022-12-18T05:04:24.589Z,-5.70
2022-12-18T05:06:50.969Z,-5.72
2022-12-18T05:09:17.463Z,-5.72
2022-12-18T05:11:45.955Z,-5.72
2022-12-18T05:14:14.277Z,-5.75
2022-12-18T05:16:40.714Z,-5.75
2022-12-18T05:19:07.203Z,-5.76
2022-12-18T05:21:33.651Z,-5.78
2022-12-18T05:24:00.095Z,-5.81
2022-12-18T05:26:26.627Z,-5.83
2022-12-18T05:28:53.108Z,-5.85
2022-12-18T05:31:23.742Z,-5.88
2022-12-18T05:33:50.238Z,-5.90
2022-12-18T05:36:16.677Z,-5.86
2022-12-18T05:38:43.250Z,-5.83
2022-12-18T05:41:09.806Z,-5.81
2022-12-18T05:43:37.163Z,-5.82
2022-12-18T05:46:04.786Z,-5.84
2022-12-18T05:48:32.570Z,-5.84
2022-12-18T05:51:03.628Z,-5.83
2022-12-18T05:53:30.094Z,-5.84
2022-12-18T05:56:00.387Z,-5.85
2022-12-18T05:58:26.861Z,-5.84
2022-12-18T06:00:53.328Z,-5.79
2022-12-18T06:03:19.972Z,-5.79
2022-12-18T06:05:47.767Z,-5.79
2022-12-18T06:08:14.354Z,-5.78
2022-12-18T06:10:41.002Z,-5.76
2022-12-18T06:13:07.900Z,-5.74
2022-12-18T06:15:36.849Z,-5.71
2022-12-18T06:18:03.502Z,-5.68
2022-12-18T06:20:33.395Z,-5.64
2022-12-18T06:23:01.851Z,-5.57
2022-12-18T06:25:28.497Z,-5.54
2022-12-18T06:27:54.910Z,-5.53
2022-12-18T06:30:21.587Z,-5.50
2022-12-18T06:32:54.650Z,-5.48
2022-12-18T06:35:22.889Z,-5.46
2022-12-18T06:37:49.481Z,-5.44
2022-12-18T06:40:17.294Z,-5.44
2022-12-18T06:42:43.687Z,-5.41
2022-12-18T06:45:10.671Z,-5.37
2022-12-18T06:47:37.080Z,-5.34
2022-12-18T06:50:03.811Z,-5.36
2022-12-18T06:52:32.250Z,-5.37
2022-12-18T06:54:58.769Z,-5.38
2022-12-18T06:57:26.555Z,-5.39
2022-12-18T06:59:53.019Z,-5.41
2022-12-18T07:02:19.642Z,-5.41
2022-12-18T07:04:46.241Z,-5.44
2022-12-18T07:07:12.731Z,-5.44
2022-12-18T07:09:39.125Z,-5.45
2022-12-18T07:12:05.608Z,-5.43
2022-12-18T07:14:33.472Z,-5.41
2022-12-18T07:17:00.031Z,-5.41
2022-12-18T07:19:26.602Z,-5.37
2022-12-18T07:21:52.991Z,-5.37
2022-12-18T07:24:19.381Z,-5.35
2022-12-18T07:26:46.372Z,-5.33
2022-12-18T07:29:12.826Z,-5.33
2022-12-18T07:31:40.678Z,-5.33
2022-12-18T07:34:10.826Z,-5.32
2022-12-18T07:36:37.534Z,-5.32
2022-12-18T07:39:05.938Z,-5.33
2022-12-18T07:41:32.603Z,-5.34
2022-12-18T07:44:09.715Z,-5.35
2022-12-18T07:46:36.140Z,-5.32
2022-12-18T07:49:03.935Z,-5.28
2022-12-18T07:51:30.393Z,-5.22
2022-12-18T07:53:57.498Z,-5.19
2022-12-18T07:56:28.711Z,-5.18
2022-12-18T07:58:56.037Z,-5.15
2022-12-18T08:01:22.580Z,-5.14
2022-12-18T08:03:52.111Z,-5.11
2022-12-18T08:06:21.787Z,-5.05
2022-12-18T08:08:51.648Z,-5.00
2022-12-18T08:11:18.044Z,-4.93
2022-12-18T08:13:45.304Z,-4.86
2022-12-18T08:16:11.721Z,-4.79
2022-12-18T08:18:38.174Z,-4.73
2022-12-18T08:21:10.436Z,-4.68
2022-12-18T08:23:42.637Z,-4.57
2022-12-18T08:26:09.558Z,-4.49
2022-12-18T08:28:36.027Z,-4.40
2022-12-18T08:31:02.663Z,-4.35
2022-12-18T08:33:29.471Z,-4.27
2022-12-18T08:35:55.931Z,-4.21
2022-12-18T08:38:22.360Z,-4.12
2022-12-18T08:40:50.214Z,-4.03
2022-12-18T08:43:16.644Z,-3.95
2022-12-18T08:45:43.223Z,-3.88
2022-12-18T08:48:09.610Z,-3.82
2022-12-18T08:50:36.156Z,-3.74
2022-12-18T08:53:02.809Z,-3.67
2022-12-18T08:55:29.296Z,-3.61
2022-12-18T08:58:00.229Z,-3.59
2022-12-18T09:00:26.627Z,-3.53
2022-12-18T09:02:53.148Z,-3.48
2022-12-18T09:05:19.590Z,-3.39
2022-12-18T09:07:47.718Z,-3.29
2022-12-18T09:10:14.132Z,-3.17
2022-12-18T09:12:40.587Z,-3.09
2022-12-18T09:15:08.748Z,-3.02
2022-12-18T09:17:35.205Z,-2.91
2022-12-18T09:20:01.774Z,-2.81
2022-12-18T09:22:28.162Z,-2.71
2022-12-18T09:24:54.500Z,-2.62
2022-12-18T09:27:21.112Z,-2.54
2022-12-18T09:29:47.464Z,-2.43
2022-12-18T09:32:19.026Z,-2.39
2022-12-18T09:34:48.672Z,-2.28
2022-12-18T09:37:15.051Z,-2.24
2022-12-18T09:39:41.553Z,-2.20
2022-12-18T09:42:13.707Z,-2.12
2022-12-18T09:44:45.512Z,-2.05
2022-12-18T09:47:14.635Z,-1.99
2022-12-18T09:49:43.401Z,-1.93
2022-12-18T09:52:12.256Z,-1.84
2022-12-18T09:54:43.441Z,-1.77
2022-12-18T09:57:14.077Z,-1.72
2022-12-18T09:59:42.978Z,-1.64
2022-12-18T10:02:14.791Z,-1.54
2022-12-18T10:04:43.028Z,-1.46
2022-12-18T10:07:15.886Z,-1.38
2022-12-18T10:09:45.746Z,-1.30
2022-12-18T10:12:17.990Z,-1.24
2022-12-18T10:14:47.931Z,-1.13
2022-12-18T10:17:19.706Z,-1.10
2022-12-18T10:19:51.415Z,-1.02
2022-12-18T10:22:26.372Z,-0.98
2022-12-18T10:24:56.471Z,-0.88
2022-12-18T10:27:25.510Z,-0.82
2022-12-18T10:29:52.022Z,-0.77
2022-12-18T10:32:19.614Z,-0.69
2022-12-18T10:34:48.081Z,-0.63
2022-12-18T10:37:16.924Z,-0.58
2022-12-18T10:39:43.450Z,-0.58
2022-12-18T10:42:10.726Z,-0.47
2022-12-18T10:44:37.177Z,-0.43
2022-12-18T10:47:10.143Z,-0.36
2022-12-18T10:49:41.745Z,-0.28
2022-12-18T10:52:14.924Z,-0.23
2022-12-18T10:54:47.630Z,-0.19
2022-12-18T10:57:31.719Z,-0.13
2022-12-18T10:59:59.038Z,-0.08
2022-12-18T11:02:29.886Z,-0.06
2022-12-18T11:04:56.956Z,-0.10
2022-12-18T11:07:24.820Z,-0.05
2022-12-18T11:10:00.895Z,-0.03
2022-12-18T11:12:29.232Z,0.00
2022-12-18T11:14:56.522Z,0.00
2022-12-18T11:17:26.895Z,0.00
2022-12-18T11:19:54.311Z,0.02
2022-12-18T11:22:21.714Z,-0.01
2022-12-18T11:25:29.457Z,0.00
2022-12-18T11:27:41.250Z,-0.04
2022-12-18T11:30:08.921Z,-0.06
2022-12-18T11:32:36.933Z,-0.07
2022-12-18T11:35:05.718Z,-0.06
2022-12-18T11:37:33.037Z,-0.05
2022-12-18T11:40:02.124Z,-0.01
2022-12-18T11:42:31.765Z,0.03
2022-12-18T11:45:00.040Z,0.06
2022-12-18T11:47:29.745Z,0.06
2022-12-18T11:49:56.891Z,0.12
2022-12-18T11:52:25.086Z,0.16
2022-12-18T11:57:16.966Z,0.20
2022-12-18T12:00:13.280Z,0.23
2022-12-18T12:02:49.002Z,0.20
2022-12-18T12:05:21.896Z,0.21
2022-12-18T12:07:53.222Z,0.20
2022-12-18T12:10:33.803Z,0.21
2022-12-18T12:13:08.633Z,0.24
2022-12-18T12:15:42.435Z,0.27
2022-12-18T12:18:14.937Z,0.27
2022-12-18T12:20:47.134Z,0.30
2022-12-18T12:23:22.405Z,0.33
2022-12-18T12:25:56.204Z,0.37
2022-12-18T12:28:31.811Z,0.39
2022-12-18T12:31:06.346Z,0.44
2022-12-18T12:33:40.374Z,0.47
2022-12-18T12:36:10.661Z,0.47
2022-12-18T12:38:41.560Z,0.49
2022-12-18T12:41:10.844Z,0.50
2022-12-18T12:43:48.055Z,0.55
2022-12-18T12:46:20.638Z,0.52
2022-12-18T12:48:50.164Z,0.58
2022-12-18T12:51:18.861Z,0.55
2022-12-18T12:53:46.083Z,0.53
2022-12-18T12:56:14.702Z,0.58
2022-12-18T12:58:46.008Z,0.60
2022-12-18T13:01:22.976Z,0.57
2022-12-18T13:03:54.993Z,0.57
2022-12-18T13:06:28.740Z,0.56
2022-12-18T13:08:57.186Z,0.63
2022-12-18T13:11:30.752Z,0.67
2022-12-18T13:13:57.563Z,0.70
2022-12-18T13:16:25.728Z,0.72
2022-12-18T13:18:54.776Z,0.74
2022-12-18T13:21:23.915Z,0.74
2022-12-18T13:23:50.576Z,0.76
2022-12-18T13:26:30.835Z,0.74
2022-12-18T13:28:58.296Z,0.74
2022-12-18T13:31:39.605Z,0.75
2022-12-18T13:34:26.232Z,0.72
2022-12-18T13:36:55.485Z,0.68
2022-12-18T13:39:34.746Z,0.65
2022-12-18T13:42:20.704Z,0.64
2022-12-18T13:44:47.232Z,0.60
2022-12-18T13:47:26.732Z,0.59
2022-12-18T13:49:55.717Z,0.56
2022-12-18T13:52:23.745Z,0.52
2022-12-18T13:54:51.971Z,0.52
2022-12-18T13:57:29.125Z,0.50
2022-12-18T13:59:56.383Z,0.50
2022-12-18T14:02:23.746Z,0.49
2022-12-18T14:04:51.405Z,0.49
2022-12-18T14:07:20.219Z,0.46
2022-12-18T14:09:48.281Z,0.48
2022-12-18T14:12:16.792Z,0.46
2022-12-18T14:14:44.837Z,0.45
2022-12-18T14:17:13.020Z,0.45
2022-12-18T14:19:42.015Z,0.43
2022-12-18T14:22:13.047Z,0.44
2022-12-18T14:24:40.855Z,0.45
2022-12-18T14:27:13.860Z,0.43
2022-12-18T14:29:43.869Z,0.43
2022-12-18T14:32:17.035Z,0.41
2022-12-18T14:34:44.898Z,0.39
2022-12-18T14:37:11.732Z,0.38
2022-12-18T14:39:38.168Z,0.36
2022-12-18T14:42:05.926Z,0.36
2022-12-18T14:44:39.247Z,0.35
2022-12-18T14:47:17.062Z,0.35
2022-12-18T14:49:43.912Z,0.32
2022-12-18T14:52:27.524Z,0.30
2022-12-18T14:54:54.086Z,0.27
2022-12-18T14:57:23.500Z,0.26
2022-12-18T14:59:50.359Z,0.24
2022-12-18T15:02:19.618Z,0.22
2022-12-18T15:04:46.243Z,0.23
2022-12-18T15:07:14.667Z,0.20
2022-12-18T15:09:42.341Z,0.18
2022-12-18T15:12:18.963Z,0.16
2022-12-18T15:14:46.802Z,0.15
2022-12-18T15:17:17.418Z,0.12
2022-12-18T15:19:44.728Z,0.08
2022-12-18T15:22:18.571Z,0.06
2022-12-18T15:24:45.343Z,0.04
2022-12-18T15:27:21.037Z,0.05
2022-12-18T15:30:01.533Z,0.03
2022-12-18T15:32:28.077Z,0.01
2022-12-18T15:35:02.588Z,-0.02
2022-12-18T15:37:29.780Z,0.00
2022-12-18T15:39:56.172Z,-0.03
2022-12-18T15:42:22.613Z,-0.03
2022-12-18T15:44:48.996Z,-0.03
2022-12-18T15:47:16.857Z,-0.05
2022-12-18T15:49:43.399Z,-0.04
2022-12-18T15:52:13.011Z,-0.04
2022-12-18T15:54:39.410Z,-0.06
2022-12-18T15:57:05.858Z,-0.06
2022-12-18T15:59:32.223Z,-0.08
2022-12-18T16:01:58.784Z,-0.08
2022-12-18T16:04:26.756Z,-0.08
2022-12-18T16:07:24.959Z,-0.09
2022-12-18T16:09:39.981Z,-0.09
2022-12-18T16:12:07.044Z,-0.09
2022-12-18T16:14:33.816Z,-0.10
2022-12-18T16:17:01.396Z,-0.11
2022-12-18T16:19:29.890Z,-0.09
2022-12-18T16:21:57.266Z,-0.08
2022-12-18T16:24:24.570Z,-0.08
2022-12-18T16:26:51.235Z,-0.10
2022-12-18T16:29:18.335Z,-0.09
2022-12-18T16:31:44.918Z,-0.08
2022-12-18T16:34:12.075Z,-0.09
2022-12-18T16:36:39.867Z,-0.10
2022-12-18T16:39:06.304Z,-0.09
2022-12-18T16:41:32.822Z,-0.10
2022-12-18T16:43:59.555Z,-0.10
2022-12-18T16:46:26.066Z,-0.08
2022-12-18T16:48:52.709Z,-0.10
2022-12-18T16:51:19.107Z,-0.12
2022-12-18T16:53:47.294Z,-0.12
2022-12-18T16:56:13.699Z,-0.12
2022-12-18T16:58:40.149Z,-0.12
2022-12-18T17:01:08.712Z,-0.15
2022-12-18T17:03:35.380Z,-0.12
2022-12-18T17:06:02.657Z,-0.14
2022-12-18T17:08:29.201Z,-0.14
2022-12-18T17:10:57.035Z,-0.14
2022-12-18T17:13:25.854Z,-0.15
2022-12-18T17:15:52.549Z,-0.16
2022-12-18T17:18:19.040Z,-0.19
2022-12-18T17:20:45.425Z,-0.19
2022-12-18T17:23:11.854Z,-0.19
2022-12-18T17:25:39.792Z,-0.20
2022-12-18T17:28:07.641Z,-0.19
2022-12-18T17:30:34.078Z,-0.20
2022-12-18T17:33:00.522Z,-0.21
2022-12-18T17:35:26.918Z,-0.22
2022-12-18T17:37:53.375Z,-0.22
2022-12-18T17:40:19.806Z,-0.22
2022-12-18T17:42:46.246Z,-0.22
2022-12-18T17:45:14.281Z,-0.21
2022-12-18T17:47:44.089Z,-0.21
2022-12-18T17:50:10.484Z,-0.22
2022-12-18T17:52:36.963Z,-0.23
2022-12-18T17:55:03.598Z,-0.21
2022-12-18T17:57:30.117Z,-0.21
2022-12-18T17:59:56.466Z,-0.24
2022-12-18T18:02:24.501Z,-0.24
2022-12-18T18:04:51.304Z,-0.23
2022-12-18T18:07:17.765Z,-0.23
2022-12-18T18:09:44.251Z,-0.24
2022-12-18T18:12:12.086Z,-0.23
2022-12-18T18:14:38.470Z,-0.24
2022-12-18T18:17:05.352Z,-0.24
2022-12-18T18:19:33.751Z,-0.25
2022-12-18T18:22:00.599Z,-0.23
2022-12-18T18:24:27.524Z,-0.23
2022-12-18T18:26:53.938Z,-0.21
2022-12-18T18:29:21.206Z,-0.19
2022-12-18T18:31:48.547Z,-0.17
2022-12-18T18:34:15.551Z,-0.17
2022-12-18T18:36:43.592Z,-0.15
2022-12-18T18:39:09.948Z,-0.14
2022-12-18T18:41:36.966Z,-0.13
2022-12-18T18:44:03.614Z,-0.10
2022-12-18T18:46:30.190Z,-0.11
2022-12-18T18:48:58.523Z,-0.08
2022-12-18T18:51:26.189Z,-0.06
2022-12-18T18:53:56.648Z,-0.04
2022-12-18T18:59:11.417Z,-0.02
2022-12-18T19:01:38.041Z,-0.02
2022-12-18T19:04:04.856Z,0.00
2022-12-18T19:06:31.300Z,0.02
2022-12-18T19:09:01.068Z,0.02
2022-12-18T19:11:31.705Z,0.04
2022-12-18T19:14:04.509Z,0.03
2022-12-18T19:16:32.693Z,0.06
2022-12-18T19:19:01.733Z,0.09
2022-12-18T19:21:28.672Z,0.11
2022-12-18T19:23:57.818Z,0.14
2022-12-18T19:26:27.991Z,0.12
2022-12-18T19:28:54.956Z,0.15
2022-12-18T19:31:25.434Z,0.17
2022-12-18T19:33:53.535Z,0.18
2022-12-18T19:36:20.805Z,0.20
2022-12-18T19:38:47.799Z,0.20
2022-12-18T19:41:14.773Z,0.21
2022-12-18T19:43:42.771Z,0.24
2022-12-18T19:46:10.937Z,0.24
2022-12-18T19:48:37.472Z,0.27
2022-12-18T19:51:05.003Z,0.25
2022-12-18T19:53:31.445Z,0.27
2022-12-18T19:55:57.836Z,0.26
2022-12-18T19:58:24.343Z,0.25
2022-12-18T20:00:52.678Z,0.25
2022-12-18T20:03:28.717Z,0.24
2022-12-18T20:06:07.643Z,0.25
2022-12-18T20:08:34.132Z,0.25
2022-12-18T20:11:00.501Z,0.25
2022-12-18T20:13:27.122Z,0.25
2022-12-18T20:15:55.415Z,0.24
2022-12-18T20:18:21.778Z,0.26
2022-12-18T20:20:50.131Z,0.26
2022-12-18T20:23:17.838Z,0.28
2022-12-18T20:25:44.693Z,0.29
2022-12-18T20:28:11.146Z,0.28
2022-12-18T20:30:37.565Z,0.30
2022-12-18T20:33:05.399Z,0.29
2022-12-18T20:35:31.832Z,0.27
2022-12-18T20:37:59.027Z,0.28
2022-12-18T20:40:27.635Z,0.27
2022-12-18T20:42:54.032Z,0.28
2022-12-18T20:45:20.495Z,0.30
2022-12-18T20:47:47.058Z,0.28
2022-12-18T20:50:14.848Z,0.27
2022-12-18T20:52:41.195Z,0.28
2022-12-18T20:55:07.857Z,0.27
2022-12-18T20:57:34.215Z,0.28
2022-12-18T21:00:02.055Z,0.28
2022-12-18T21:02:28.688Z,0.27
2022-12-18T21:04:55.264Z,0.25
2022-12-18T21:07:23.068Z,0.24
2022-12-18T21:09:49.565Z,0.22
2022-12-18T21:12:16.391Z,0.22
2022-12-18T21:14:43.744Z,0.23
2022-12-18T21:17:10.535Z,0.21
2022-12-18T21:19:37.356Z,0.23
2022-12-18T21:22:03.852Z,0.24
2022-12-18T21:24:32.530Z,0.24
2022-12-18T21:27:00.784Z,0.22
2022-12-18T21:29:27.375Z,0.23
2022-12-18T21:31:54.327Z,0.21
2022-12-18T21:34:22.055Z,0.20
2022-12-18T21:36:48.544Z,0.21
2022-12-18T21:39:15.191Z,0.22
2022-12-18T21:41:42.941Z,0.25
2022-12-18T21:44:11.407Z,0.24
2022-12-18T21:46:38.857Z,0.27
2022-12-18T21:49:05.747Z,0.26
2022-12-18T21:51:32.850Z,0.28
2022-12-18T21:53:59.469Z,0.27
2022-12-18T21:56:42.069Z,0.28
2022-12-18T21:59:09.881Z,0.30
2022-12-18T22:01:37.758Z,0.30
2022-12-18T22:04:04.525Z,0.32
2022-12-18T22:06:30.956Z,0.32
2022-12-18T22:08:57.469Z,0.31
2022-12-18T22:11:23.869Z,0.32
2022-12-18T22:13:50.612Z,0.33
2022-12-18T22:16:18.427Z,0.32
2022-12-18T22:18:44.890Z,0.33
2022-12-18T22:21:27.006Z,0.35
2022-12-18T22:23:55.830Z,0.39
2022-12-18T22:26:22.687Z,0.40
2022-12-18T22:28:49.284Z,0.41
2022-12-18T22:31:15.740Z,0.41
2022-12-18T22:33:43.633Z,0.41
2022-12-18T22:36:11.765Z,0.42
2022-12-18T22:38:38.239Z,0.44
2022-12-18T22:41:04.779Z,0.43
2022-12-18T22:43:31.166Z,0.42
2022-12-18T22:45:57.735Z,0.44
2022-12-18T22:48:24.173Z,0.47
2022-12-18T22:50:53.477Z,0.46
2022-12-18T22:53:25.987Z,0.50
2022-12-18T22:55:59.632Z,0.48
2022-12-18T22:58:26.100Z,0.50
2022-12-18T23:00:52.498Z,0.51
2022-12-18T23:03:18.990Z,0.53
2022-12-18T23:05:45.420Z,0.53
2022-12-18T23:08:13.211Z,0.55
2022-12-18T23:10:39.861Z,0.58
2022-12-18T23:13:06.434Z,0.57
2022-12-18T23:15:32.812Z,0.61
2022-12-18T23:17:59.491Z,0.60
2022-12-18T23:20:26.668Z,0.60
2022-12-18T23:22:53.091Z,0.62
2022-12-18T23:25:20.852Z,0.63
2022-12-18T23:27:47.321Z,0.66
2022-12-18T23:30:13.784Z,0.68
2022-12-18T23:32:40.283Z,0.72
2022-12-18T23:35:07.176Z,0.73
2022-12-18T23:37:58.928Z,0.76
2022-12-18T23:40:23.344Z,0.79
2022-12-18T23:42:49.746Z,0.81
2022-12-18T23:45:17.748Z,0.84
2022-12-18T23:47:44.825Z,0.86
2022-12-18T23:50:13.441Z,0.85
2022-12-18T23:52:40.184Z,0.85
2022-12-18T23:55:06.903Z,0.84
2022-12-18T23:57:34.732Z,0.85
